PHNLPHKO

Guest
Details From PHNL - Honolulu Intl
To PHKO - Kona Intl At Keahole
Flight Number -
Tags Generated
Created
Modified
Stats Distance 141 nm / 262 km
Max Altitude 0 ft / 0 m
Waypoints 2
Social Downloads 1
Likes 0
Share VATSIM

Download

Looking for another format? Having issues loading an existing format? Contact us
Advertisement - Login to hide

Notes

Generated

Route

PHNL PHKO

ID Type Via Altitude Latitude Longitude Leg Dist Tot Dist Heading (true) Name
O PHNL APT - 0 ft / 0 m 21.31833˚ -157.92332˚ - 0 nm - Honolulu Intl
O PHKO APT - 0 ft / 0 m 19.75386˚ -156.04429˚ 141 nm 141 nm 131° / 132° -

Altitude Profile

Advertisement - Login to hide

PHNL

Details ICAO PHNL (HNL)
Name Honolulu Intl
Region USA (Hawaii)
Timezone Pacific/Honolulu (UTC-10.0)
Stats Elevation 13 ft / 4 m (AMSL)
Location 21.319376° -157.921281°
Runways 4
Magnetic Variation 9.483° E

METAR

PHNL 151353Z 03006KT 10SM FEW027 FEW050 22/08 A2997

Decode

TAF

PHNL 151120Z 1512/1618 04009G17KT P6SM VCSH FEW025 BKN045 FM152000 05017G25KT P6SM FEW025 BKN050 FM160600 02008KT P6SM VCSH SCT025 OVC050 FM160900 36006KT 5SM -SHRA SCT025 OVC045

Decode

Departure Runways

ID Width Length Bearing (true) Bearing (mag) Surface Threshold Offset Overrun Length
04L 150 ft / 46 m 6,958 ft / 2,121 m 52.84° 43.36° Asphalt 0 ft / 0 m 215 ft / 66 m
04R 150 ft / 46 m 9,008 ft / 2,746 m 52.86° 43.38° Asphalt 0 ft / 0 m 200 ft / 61 m
08L 150 ft / 46 m 12,285 ft / 3,744 m 90.00° 80.52° Asphalt 0 ft / 0 m 1,000 ft / 305 m
08R 200 ft / 61 m 11,985 ft / 3,653 m 90.00° 80.52° Asphalt 0 ft / 0 m 700 ft / 213 m
22L 150 ft / 46 m 9,008 ft / 2,746 m 232.86° 223.38° Asphalt 0 ft / 0 m 215 ft / 66 m
22R 150 ft / 46 m 6,958 ft / 2,121 m 232.85° 223.37° Asphalt 0 ft / 0 m 0 ft / 0 m
26L 200 ft / 61 m 11,985 ft / 3,653 m 270.01° 260.53° Asphalt 0 ft / 0 m 700 ft / 213 m
26R 150 ft / 46 m 12,285 ft / 3,744 m 270.01° 260.53° Asphalt 0 ft / 0 m 655 ft / 200 m

PHKO

Details ICAO PHKO (KOA)
Name Kona Intl At Keahole
Region USA (Hawaii)
Timezone Pacific/Honolulu (UTC-10.0)
Stats Elevation 45 ft / 14 m (AMSL)
Location 19.739343° -156.045756°
Runways 1
Magnetic Variation 9.436° E

METAR

PHKO 151353Z AUTO 04015KT 10SM CLR 21/08 A2988

Decode

TAF

PHKO 151120Z 1512/1612 03016G22KT P6SM FEW060 FM151900 36022G29KT P6SM FEW060 FM160300 04016G23KT P6SM SCT060 FM160700 06007KT P6SM FEW060

Decode

Destination Runways

ID Width Length Bearing (true) Bearing (mag) Surface Threshold Offset Overrun Length
17 150 ft / 46 m 11,461 ft / 3,493 m 184.77° 175.33° Asphalt 407 ft / 124 m 0 ft / 0 m
35 150 ft / 46 m 11,461 ft / 3,493 m 4.77° 355.33° Asphalt 0 ft / 0 m 404 ft / 123 m

Approach Navaids

Runway Type Ident Frequency Range Bearing (true) Bearing (mag) Slope Elevation
17 Localiser IKOA 109.70 MHz 18 nm / 33 km 184.77° 175.33° - 43 ft / 13 m (AMSL)
17 Glidescope IKOA 109.70 MHz 10 nm / 19 km 184.77° 175.33° 3.00° 43 ft / 13 m (AMSL)
17 DME IKOA 109.70 MHz 18 nm / 33 km - - - 43 ft / 13 m (AMSL)

Popular Alternatives